EDT,Max TemperatureF,Mean TemperatureF,Min TemperatureF,Max Dew PointF,MeanDew PointF,Min DewpointF,Max Humidity, Mean Humidity, Min Humidity, Max Sea Level PressureIn, Mean Sea Level PressureIn, Min Sea Level PressureIn, Max VisibilityMiles, Mean VisibilityMiles, Min VisibilityMiles, Max Wind SpeedMPH, Mean Wind SpeedMPH, Max Gust SpeedMPH,PrecipitationIn, CloudCover, Events, WindDirDegrees
2012-10-1,69,58,48,52,49,46,90,73,51,29.95,29.80,29.74,10,10,10,21,9,30,0.01,1,,235
2012-10-2,72,56,51,57,55,48,90,88,86,30.06,30.04,29.99,10,7,3,6,1,,0.08,5,Rain,230
2012-10-3,64,62,60,63,60,57,96,93,88,30.14,30.08,30.04,10,3,0,7,5,,0.02,8,Fog-Rain,55
2012-10-4,63,62,60,61,59,57,100,93,88,30.15,30.11,30.03,10,3,0,9,6,,0.03,8,Fog-Rain,1
2012-10-5,75,67,57,61,58,55,100,87,50,30.04,30.00,29.94,10,4,0,8,2,,0.01,4,Fog,276
2012-10-6,77,66,54,64,58,45,94,82,54,29.94,29.85,29.75,10,6,1,21,6,31,0.04,4,Rain,231
2012-10-7,61,52,45,49,45,40,93,79,49,30.07,30.04,29.97,10,9,5,12,3,20,0.10,5,Rain,288
2012-10-8,57,47,39,45,43,38,100,81,59,30.32,30.20,30.06,10,9,2,9,5,,0.02,3,Rain,338
2012-10-9,57,54,51,52,49,45,89,81,69,30.31,30.20,30.13,10,10,5,15,8,23,0.02,8,Rain,64
2012-10-10,64,58,53,61,56,51,94,90,77,30.12,29.92,29.73,10,8,2,14,7,22,0.07,7,Rain,98
2012-10-11,60,52,41,44,37,34,86,61,39,30.16,30.03,29.82,10,10,10,16,12,25,0.00,0,,276
2012-10-12,55,48,39,44,35,22,85,66,50,30.36,30.14,30.03,10,10,8,15,6,21,0.01,1,Rain,297
2012-10-13,52,41,30,35,27,24,76,56,34,30.47,30.41,30.34,10,10,10,12,5,,0.00,0,,284
2012-10-14,66,52,39,57,49,35,84,74,60,30.33,30.13,29.99,10,10,7,22,7,32,0.03,5,Rain,216
2012-10-15,71,67,63,63,60,56,88,80,68,29.97,29.78,29.62,10,10,10,17,12,26,0.00,4,,208
2012-10-16,64,52,39,61,45,35,94,74,44,29.87,29.67,29.56,10,10,9,20,8,28,0.01,4,Rain,273
2012-10-17,60,46,32,42,37,30,93,76,42,30.02,29.95,29.89,10,10,10,9,2,,0.00,0,,353
2012-10-18,64,50,37,49,44,36,93,77,52,30.13,30.08,30.03,10,10,6,9,2,,0.00,0,,162
2012-10-19,70,62,53,66,59,51,94,83,59,30.07,29.89,29.76,10,8,2,15,8,25,0.10,7,Rain,131
2012-10-20,72,64,57,66,63,54,96,89,66,29.79,29.71,29.65,10,7,0,14,6,22,0.42,6,Fog-Rain-Thunderstorm,195
2012-10-21,63,53,43,46,41,38,93,64,41,29.91,29.85,29.78,10,10,10,14,7,22,0.00,1,,257
2012-10-22,66,56,46,43,41,40,83,59,40,29.99,29.93,29.89,10,10,10,18,9,26,0.00,1,,283
2012-10-23,64,52,41,51,44,38,90,70,40,30.11,30.06,30.01,10,10,10,10,3,,0.00,1,Rain,285
2012-10-24,54,49,42,51,42,39,93,71,61,30.22,30.17,30.12,10,10,10,10,4,,0.00,7,,41
2012-10-25,63,49,35,45,40,32,93,75,46,30.31,30.27,30.23,10,10,10,8,2,,0.00,0,,67
2012-10-26,68,52,39,51,44,37,93,75,44,30.26,30.20,30.14,10,10,10,8,1,,0.00,0,,203
2012-10-27,64,53,42,52,47,39,94,84,63,30.13,30.05,29.99,10,9,1,8,2,,0.00,1,,44
2012-10-28,57,53,51,52,51,46,94,88,77,29.99,29.89,29.72,10,6,2,20,11,33,0.04,7,Rain,59
2012-10-29,63,58,53,61,56,51,94,91,86,29.72,29.39,29.17,10,4,1,34,21,56,1.08,8,Rain,75
2012-10-30,66,58,51,60,56,50,94,86,70,29.58,29.51,29.33,10,8,1,24,7,44,0.61,6,Rain-Thunderstorm,120
2012-10-31,59,52,46,55,49,42,96,82,67,29.58,29.53,29.48,10,10,7,12,4,18,0.01,6,Rain,200